sensor_id;sensor_type;location;lat;lon;timestamp;temperature;humidity
34434;DHT22;34290;48.562;13.384;2023-04-19T00:00:13;8.90;99.90
34434;DHT22;34290;48.562;13.384;2023-04-19T00:02:40;8.90;99.90
34434;DHT22;34290;48.562;13.384;2023-04-19T00:10:04;8.90;99.90
34434;DHT22;34290;48.562;13.384;2023-04-19T00:12:31;8.90;99.90
34434;DHT22;34290;48.562;13.384;2023-04-19T00:14:59;8.80;99.90
34434;DHT22;34290;48.562;13.384;2023-04-19T00:19:54;8.60;99.90
34434;DHT22;34290;48.562;13.384;2023-04-19T00:22:21;8.70;99.90
34434;DHT22;34290;48.562;13.384;2023-04-19T00:24:48;8.60;99.90
34434;DHT22;34290;48.562;13.384;2023-04-19T00:29:42;8.60;99.90
34434;DHT22;34290;48.562;13.384;2023-04-19T00:34:38;8.50;99.90
34434;DHT22;34290;48.562;13.384;2023-04-19T00:39:32;8.40;99.90
34434;DHT22;34290;48.562;13.384;2023-04-19T00:44:27;8.20;99.90
34434;DHT22;34290;48.562;13.384;2023-04-19T00:46:55;8.10;99.90
34434;DHT22;34290;48.562;13.384;2023-04-19T00:51:50;7.90;99.90
34434;DHT22;34290;48.562;13.384;2023-04-19T01:01:41;7.70;99.90
34434;DHT22;34290;48.562;13.384;2023-04-19T01:06:37;7.70;99.90
34434;DHT22;34290;48.562;13.384;2023-04-19T01:14:01;7.60;99.90
34434;DHT22;34290;48.562;13.384;2023-04-19T01:19:10;7.50;99.90
34434;DHT22;34290;48.562;13.384;2023-04-19T01:21:39;7.40;99.90
34434;DHT22;34290;48.562;13.384;2023-04-19T01:24:09;7.20;99.90
34434;DHT22;34290;48.562;13.384;2023-04-19T01:29:03;7.10;99.90
34434;DHT22;34290;48.562;13.384;2023-04-19T01:33:58;7.10;99.90
34434;DHT22;34290;48.562;13.384;2023-04-19T01:41:21;6.90;99.90
34434;DHT22;34290;48.562;13.384;2023-04-19T01:46:18;6.70;99.90
34434;DHT22;34290;48.562;13.384;2023-04-19T01:51:12;6.40;99.90
34434;DHT22;34290;48.562;13.384;2023-04-19T01:56:09;6.20;99.90
34434;DHT22;34290;48.562;13.384;2023-04-19T01:58:37;6.20;99.90
34434;DHT22;34290;48.562;13.384;2023-04-19T02:01:04;6.20;99.90
34434;DHT22;34290;48.562;13.384;2023-04-19T02:03:31;6.20;99.90
34434;DHT22;34290;48.562;13.384;2023-04-19T02:10:53;6.10;99.90
34434;DHT22;34290;48.562;13.384;2023-04-19T02:15:48;6.00;99.90
34434;DHT22;34290;48.562;13.384;2023-04-19T02:18:15;6.00;99.90
34434;DHT22;34290;48.562;13.384;2023-04-19T02:20:43;6.00;99.90
34434;DHT22;34290;48.562;13.384;2023-04-19T02:23:09;6.20;99.90
34434;DHT22;34290;48.562;13.384;2023-04-19T02:28:04;6.00;99.90
34434;DHT22;34290;48.562;13.384;2023-04-19T02:30:31;5.90;99.90
34434;DHT22;34290;48.562;13.384;2023-04-19T02:32:59;5.80;99.90
34434;DHT22;34290;48.562;13.384;2023-04-19T02:37:53;5.60;99.90
34434;DHT22;34290;48.562;13.384;2023-04-19T02:45:15;5.60;99.90
34434;DHT22;34290;48.562;13.384;2023-04-19T02:47:42;5.60;99.90
34434;DHT22;34290;48.562;13.384;2023-04-19T02:50:12;5.60;99.90
34434;DHT22;34290;48.562;13.384;2023-04-19T02:57:34;5.70;99.90
34434;DHT22;34290;48.562;13.384;2023-04-19T03:04:57;5.50;99.90
34434;DHT22;34290;48.562;13.384;2023-04-19T03:09:52;5.40;99.90
34434;DHT22;34290;48.562;13.384;2023-04-19T03:14:47;5.30;99.90
34434;DHT22;34290;48.562;13.384;2023-04-19T03:19:41;5.20;99.90
34434;DHT22;34290;48.562;13.384;2023-04-19T03:22:08;5.10;99.90
34434;DHT22;34290;48.562;13.384;2023-04-19T03:24:37;5.10;99.90
34434;DHT22;34290;48.562;13.384;2023-04-19T03:29:31;5.20;99.90
34434;DHT22;34290;48.562;13.384;2023-04-19T03:34:25;5.20;99.90
34434;DHT22;34290;48.562;13.384;2023-04-19T03:39:19;5.10;99.90
34434;DHT22;34290;48.562;13.384;2023-04-19T03:44:15;5.10;99.90
34434;DHT22;34290;48.562;13.384;2023-04-19T03:51:38;5.00;99.90
34434;DHT22;34290;48.562;13.384;2023-04-19T03:56:32;5.10;99.90
34434;DHT22;34290;48.562;13.384;2023-04-19T04:01:28;5.20;99.90
34434;DHT22;34290;48.562;13.384;2023-04-19T04:03:55;5.40;99.90
34434;DHT22;34290;48.562;13.384;2023-04-19T04:08:49;5.50;99.90
34434;DHT22;34290;48.562;13.384;2023-04-19T04:13:43;5.50;99.90
34434;DHT22;34290;48.562;13.384;2023-04-19T04:21:07;5.40;99.90
34434;DHT22;34290;48.562;13.384;2023-04-19T04:28:30;5.40;99.90
34434;DHT22;34290;48.562;13.384;2023-04-19T04:33:27;5.30;99.90
34434;DHT22;34290;48.562;13.384;2023-04-19T04:40:50;5.60;99.90
34434;DHT22;34290;48.562;13.384;2023-04-19T04:43:18;5.70;99.90
34434;DHT22;34290;48.562;13.384;2023-04-19T04:45:45;5.70;99.90
34434;DHT22;34290;48.562;13.384;2023-04-19T04:50:42;5.80;99.90
34434;DHT22;34290;48.562;13.384;2023-04-19T04:58:04;5.80;99.90
34434;DHT22;34290;48.562;13.384;2023-04-19T05:02:59;5.80;99.90
34434;DHT22;34290;48.562;13.384;2023-04-19T05:05:26;5.90;99.90
34434;DHT22;34290;48.562;13.384;2023-04-19T05:07:54;5.90;99.90
34434;DHT22;34290;48.562;13.384;2023-04-19T05:12:49;6.10;99.90
34434;DHT22;34290;48.562;13.384;2023-04-19T05:17:43;6.10;99.90
34434;DHT22;34290;48.562;13.384;2023-04-19T05:25:08;6.30;99.90
34434;DHT22;34290;48.562;13.384;2023-04-19T05:30:03;6.50;99.90
34434;DHT22;34290;48.562;13.384;2023-04-19T05:32:30;6.50;99.90
34434;DHT22;34290;48.562;13.384;2023-04-19T05:34:57;6.50;99.90
34434;DHT22;34290;48.562;13.384;2023-04-19T05:39:52;6.50;99.90
34434;DHT22;34290;48.562;13.384;2023-04-19T05:44:47;6.60;99.90
34434;DHT22;34290;48.562;13.384;2023-04-19T05:49:42;6.60;99.90
34434;DHT22;34290;48.562;13.384;2023-04-19T05:54:36;6.60;99.90
34434;DHT22;34290;48.562;13.384;2023-04-19T05:59:32;7.00;99.90
34434;DHT22;34290;48.562;13.384;2023-04-19T06:04:26;7.30;99.90
34434;DHT22;34290;48.562;13.384;2023-04-19T06:06:56;7.50;99.90
34434;DHT22;34290;48.562;13.384;2023-04-19T06:16:48;7.90;99.90
34434;DHT22;34290;48.562;13.384;2023-04-19T06:21:42;8.10;99.90
34434;DHT22;34290;48.562;13.384;2023-04-19T06:29:04;8.40;99.90
34434;DHT22;34290;48.562;13.384;2023-04-19T06:36:27;8.50;99.90
34434;DHT22;34290;48.562;13.384;2023-04-19T06:38:54;8.50;99.90
34434;DHT22;34290;48.562;13.384;2023-04-19T06:41:21;8.60;99.90
34434;DHT22;34290;48.562;13.384;2023-04-19T06:46:16;8.40;99.90
34434;DHT22;34290;48.562;13.384;2023-04-19T06:51:11;8.80;99.90
34434;DHT22;34290;48.562;13.384;2023-04-19T06:56:06;9.30;99.90
34434;DHT22;34290;48.562;13.384;2023-04-19T06:58:34;9.60;99.90
34434;DHT22;34290;48.562;13.384;2023-04-19T07:01:02;10.00;99.90
34434;DHT22;34290;48.562;13.384;2023-04-19T07:05:56;10.50;99.90
34434;DHT22;34290;48.562;13.384;2023-04-19T07:08:25;10.60;99.90
34434;DHT22;34290;48.562;13.384;2023-04-19T07:10:52;10.70;99.90
34434;DHT22;34290;48.562;13.384;2023-04-19T07:15:48;10.60;99.90
34434;DHT22;34290;48.562;13.384;2023-04-19T07:20:42;10.60;99.90
34434;DHT22;34290;48.562;13.384;2023-04-19T07:23:13;10.80;99.90
34434;DHT22;34290;48.562;13.384;2023-04-19T07:28:09;11.10;99.90
34434;DHT22;34290;48.562;13.384;2023-04-19T07:40:27;11.30;99.90
34434;DHT22;34290;48.562;13.384;2023-04-19T07:45:23;11.40;99.90
34434;DHT22;34290;48.562;13.384;2023-04-19T07:50:18;11.30;99.90
34434;DHT22;34290;48.562;13.384;2023-04-19T07:55:12;11.20;99.90
34434;DHT22;34290;48.562;13.384;2023-04-19T08:00:13;11.10;99.90
34434;DHT22;34290;48.562;13.384;2023-04-19T08:02:42;11.10;99.90
34434;DHT22;34290;48.562;13.384;2023-04-19T08:12:32;10.40;99.90
34434;DHT22;34290;48.562;13.384;2023-04-19T08:17:28;10.00;99.90
34434;DHT22;34290;48.562;13.384;2023-04-19T08:22:22;9.80;99.90
34434;DHT22;34290;48.562;13.384;2023-04-19T08:27:17;9.60;99.90
34434;DHT22;34290;48.562;13.384;2023-04-19T08:32:11;9.40;99.90
34434;DHT22;34290;48.562;13.384;2023-04-19T08:37:07;9.50;99.90
34434;DHT22;34290;48.562;13.384;2023-04-19T08:44:32;9.80;99.90
34434;DHT22;34290;48.562;13.384;2023-04-19T08:46:59;9.90;99.90
34434;DHT22;34290;48.562;13.384;2023-04-19T08:49:27;9.90;99.90
34434;DHT22;34290;48.562;13.384;2023-04-19T08:54:24;9.80;99.90
34434;DHT22;34290;48.562;13.384;2023-04-19T08:56:52;9.80;99.90
34434;DHT22;34290;48.562;13.384;2023-04-19T08:59:19;9.80;99.90
34434;DHT22;34290;48.562;13.384;2023-04-19T09:04:14;9.80;99.90
34434;DHT22;34290;48.562;13.384;2023-04-19T09:11:44;9.80;99.90
34434;DHT22;34290;48.562;13.384;2023-04-19T09:16:40;9.70;99.90
34434;DHT22;34290;48.562;13.384;2023-04-19T09:21:35;9.70;99.90
34434;DHT22;34290;48.562;13.384;2023-04-19T09:24:03;9.70;99.90
34434;DHT22;34290;48.562;13.384;2023-04-19T09:26:32;9.70;99.90
34434;DHT22;34290;48.562;13.384;2023-04-19T09:31:28;9.80;99.90
34434;DHT22;34290;48.562;13.384;2023-04-19T09:36:27;10.00;99.90
34434;DHT22;34290;48.562;13.384;2023-04-19T09:41:21;10.10;99.90
34434;DHT22;34290;48.562;13.384;2023-04-19T09:54:10;10.00;99.90
34434;DHT22;34290;48.562;13.384;2023-04-19T09:59:08;10.10;99.90
34434;DHT22;34290;48.562;13.384;2023-04-19T10:01:38;10.20;99.90
34434;DHT22;34290;48.562;13.384;2023-04-19T10:04:06;10.30;99.90
34434;DHT22;34290;48.562;13.384;2023-04-19T10:09:02;10.20;99.90
34434;DHT22;34290;48.562;13.384;2023-04-19T10:14:05;10.20;99.90
34434;DHT22;34290;48.562;13.384;2023-04-19T10:16:33;10.20;99.90
34434;DHT22;34290;48.562;13.384;2023-04-19T10:19:02;10.10;99.90
34434;DHT22;34290;48.562;13.384;2023-04-19T10:21:30;10.10;99.90
34434;DHT22;34290;48.562;13.384;2023-04-19T10:23:58;10.10;99.90
34434;DHT22;34290;48.562;13.384;2023-04-19T10:26:26;10.20;99.90
34434;DHT22;34290;48.562;13.384;2023-04-19T10:31:24;10.00;99.90
34434;DHT22;34290;48.562;13.384;2023-04-19T10:33:52;10.00;99.90
34434;DHT22;34290;48.562;13.384;2023-04-19T10:43:45;9.80;99.90
34434;DHT22;34290;48.562;13.384;2023-04-19T10:48:50;9.60;99.90
34434;DHT22;34290;48.562;13.384;2023-04-19T10:51:21;9.60;99.90
34434;DHT22;34290;48.562;13.384;2023-04-19T11:01:54;9.10;99.90
34434;DHT22;34290;48.562;13.384;2023-04-19T11:07:06;8.90;99.90
34434;DHT22;34290;48.562;13.384;2023-04-19T11:09:34;8.80;99.90
34434;DHT22;34290;48.562;13.384;2023-04-19T11:14:34;8.80;99.90
34434;DHT22;34290;48.562;13.384;2023-04-19T11:17:03;8.80;99.90
34434;DHT22;34290;48.562;13.384;2023-04-19T11:19:32;8.90;99.90
34434;DHT22;34290;48.562;13.384;2023-04-19T11:24:26;9.10;99.90
34434;DHT22;34290;48.562;13.384;2023-04-19T11:29:23;9.10;99.90
34434;DHT22;34290;48.562;13.384;2023-04-19T11:31:50;9.10;99.90
34434;DHT22;34290;48.562;13.384;2023-04-19T11:36:50;9.30;99.90
34434;DHT22;34290;48.562;13.384;2023-04-19T11:46:41;9.50;99.90
34434;DHT22;34290;48.562;13.384;2023-04-19T11:54:12;9.10;99.90
34434;DHT22;34290;48.562;13.384;2023-04-19T11:56:57;9.10;99.90
34434;DHT22;34290;48.562;13.384;2023-04-19T11:59:24;8.90;99.90
34434;DHT22;34290;48.562;13.384;2023-04-19T12:01:51;8.90;99.90
34434;DHT22;34290;48.562;13.384;2023-04-19T12:04:19;8.90;99.90
34434;DHT22;34290;48.562;13.384;2023-04-19T12:06:55;9.00;99.90
34434;DHT22;34290;48.562;13.384;2023-04-19T12:09:25;9.10;99.90
34434;DHT22;34290;48.562;13.384;2023-04-19T12:11:52;9.00;99.90
34434;DHT22;34290;48.562;13.384;2023-04-19T12:14:20;9.10;99.90
34434;DHT22;34290;48.562;13.384;2023-04-19T12:19:35;9.10;99.90
34434;DHT22;34290;48.562;13.384;2023-04-19T12:24:38;9.00;99.90
34434;DHT22;34290;48.562;13.384;2023-04-19T12:27:06;9.20;99.90
34434;DHT22;34290;48.562;13.384;2023-04-19T12:32:01;9.30;99.90
34434;DHT22;34290;48.562;13.384;2023-04-19T12:34:28;9.30;99.90
34434;DHT22;34290;48.562;13.384;2023-04-19T12:39:22;9.20;99.90
34434;DHT22;34290;48.562;13.384;2023-04-19T12:49:13;8.90;99.90
34434;DHT22;34290;48.562;13.384;2023-04-19T13:01:31;8.50;99.90
34434;DHT22;34290;48.562;13.384;2023-04-19T13:06:25;8.40;99.90
34434;DHT22;34290;48.562;13.384;2023-04-19T13:11:19;8.40;99.90
34434;DHT22;34290;48.562;13.384;2023-04-19T13:16:17;8.20;99.90
34434;DHT22;34290;48.562;13.384;2023-04-19T13:26:06;7.80;99.90
34434;DHT22;34290;48.562;13.384;2023-04-19T13:31:02;7.80;99.90
34434;DHT22;34290;48.562;13.384;2023-04-19T13:35:57;7.90;99.90
34434;DHT22;34290;48.562;13.384;2023-04-19T13:38:24;8.00;99.90
34434;DHT22;34290;48.562;13.384;2023-04-19T13:43:18;7.90;99.90
34434;DHT22;34290;48.562;13.384;2023-04-19T13:48:13;7.80;99.90
34434;DHT22;34290;48.562;13.384;2023-04-19T13:53:08;7.50;99.90
34434;DHT22;34290;48.562;13.384;2023-04-19T13:58:02;7.70;99.90
34434;DHT22;34290;48.562;13.384;2023-04-19T14:05:25;7.70;99.90
34434;DHT22;34290;48.562;13.384;2023-04-19T14:10:21;7.70;99.90
34434;DHT22;34290;48.562;13.384;2023-04-19T14:15:17;7.70;99.90
34434;DHT22;34290;48.562;13.384;2023-04-19T14:17:44;7.60;99.90
34434;DHT22;34290;48.562;13.384;2023-04-19T14:20:12;7.60;99.90
34434;DHT22;34290;48.562;13.384;2023-04-19T14:25:08;7.60;99.90
34434;DHT22;34290;48.562;13.384;2023-04-19T14:32:32;7.60;99.90
34434;DHT22;34290;48.562;13.384;2023-04-19T14:37:27;7.70;99.90
34434;DHT22;34290;48.562;13.384;2023-04-19T14:42:23;7.70;99.90
34434;DHT22;34290;48.562;13.384;2023-04-19T14:44:50;7.60;99.90
34434;DHT22;34290;48.562;13.384;2023-04-19T14:47:18;7.50;99.90
34434;DHT22;34290;48.562;13.384;2023-04-19T14:52:12;7.50;99.90
34434;DHT22;34290;48.562;13.384;2023-04-19T14:57:06;7.40;99.90
34434;DHT22;34290;48.562;13.384;2023-04-19T14:59:35;7.40;99.90
34434;DHT22;34290;48.562;13.384;2023-04-19T15:04:32;7.50;99.90
34434;DHT22;34290;48.562;13.384;2023-04-19T15:09:27;7.80;99.90
34434;DHT22;34290;48.562;13.384;2023-04-19T15:16:50;8.10;99.90
34434;DHT22;34290;48.562;13.384;2023-04-19T15:19:17;8.20;99.90
34434;DHT22;34290;48.562;13.384;2023-04-19T15:21:47;8.20;99.90
34434;DHT22;34290;48.562;13.384;2023-04-19T15:34:05;8.00;99.90
34434;DHT22;34290;48.562;13.384;2023-04-19T15:36:32;8.00;99.90
34434;DHT22;34290;48.562;13.384;2023-04-19T15:41:26;8.00;99.90
34434;DHT22;34290;48.562;13.384;2023-04-19T15:48:48;7.90;99.90
34434;DHT22;34290;48.562;13.384;2023-04-19T15:51:16;7.80;99.90
34434;DHT22;34290;48.562;13.384;2023-04-19T15:56:10;7.70;99.90
34434;DHT22;34290;48.562;13.384;2023-04-19T16:01:09;7.60;99.90
34434;DHT22;34290;48.562;13.384;2023-04-19T16:03:36;7.50;99.90
34434;DHT22;34290;48.562;13.384;2023-04-19T16:08:32;7.50;99.90
34434;DHT22;34290;48.562;13.384;2023-04-19T16:10:59;7.50;99.90
34434;DHT22;34290;48.562;13.384;2023-04-19T16:15:53;7.40;99.90
34434;DHT22;34290;48.562;13.384;2023-04-19T16:23:15;7.30;99.90
34434;DHT22;34290;48.562;13.384;2023-04-19T16:28:11;7.20;99.90
34434;DHT22;34290;48.562;13.384;2023-04-19T16:33:05;7.10;99.90
34434;DHT22;34290;48.562;13.384;2023-04-19T16:38:00;7.10;99.90
34434;DHT22;34290;48.562;13.384;2023-04-19T16:42:57;7.00;99.90
34434;DHT22;34290;48.562;13.384;2023-04-19T16:47:52;6.80;99.90
34434;DHT22;34290;48.562;13.384;2023-04-19T16:52:46;6.70;99.90
34434;DHT22;34290;48.562;13.384;2023-04-19T16:57:40;6.70;99.90
34434;DHT22;34290;48.562;13.384;2023-04-19T17:00:10;6.80;99.90
34434;DHT22;34290;48.562;13.384;2023-04-19T17:07:32;6.60;99.90
34434;DHT22;34290;48.562;13.384;2023-04-19T17:12:27;6.60;99.90
34434;DHT22;34290;48.562;13.384;2023-04-19T17:17:22;6.60;99.90
34434;DHT22;34290;48.562;13.384;2023-04-19T17:22:17;6.50;99.90
34434;DHT22;34290;48.562;13.384;2023-04-19T17:27:11;6.60;99.90
34434;DHT22;34290;48.562;13.384;2023-04-19T17:34:35;6.50;99.90
34434;DHT22;34290;48.562;13.384;2023-04-19T17:37:02;6.40;99.90
34434;DHT22;34290;48.562;13.384;2023-04-19T17:39:29;6.50;99.90
34434;DHT22;34290;48.562;13.384;2023-04-19T17:41:56;6.30;99.90
34434;DHT22;34290;48.562;13.384;2023-04-19T17:49:17;6.20;99.90
34434;DHT22;34290;48.562;13.384;2023-04-19T17:51:47;6.20;99.90
34434;DHT22;34290;48.562;13.384;2023-04-19T17:54:14;6.30;99.90
34434;DHT22;34290;48.562;13.384;2023-04-19T17:56:41;6.20;99.90
34434;DHT22;34290;48.562;13.384;2023-04-19T17:59:08;6.20;99.90
34434;DHT22;34290;48.562;13.384;2023-04-19T18:04:03;6.10;99.90
34434;DHT22;34290;48.562;13.384;2023-04-19T18:06:30;6.00;99.90
34434;DHT22;34290;48.562;13.384;2023-04-19T18:08:58;5.90;99.90
34434;DHT22;34290;48.562;13.384;2023-04-19T18:13:53;5.90;99.90
34434;DHT22;34290;48.562;13.384;2023-04-19T18:16:20;5.90;99.90
34434;DHT22;34290;48.562;13.384;2023-04-19T18:21:15;5.80;99.90
34434;DHT22;34290;48.562;13.384;2023-04-19T18:23:43;5.80;99.90
34434;DHT22;34290;48.562;13.384;2023-04-19T18:28:39;5.70;99.90
34434;DHT22;34290;48.562;13.384;2023-04-19T18:33:33;5.60;99.90
34434;DHT22;34290;48.562;13.384;2023-04-19T18:36:00;5.50;99.90
34434;DHT22;34290;48.562;13.384;2023-04-19T18:38:27;5.50;99.90
34434;DHT22;34290;48.562;13.384;2023-04-19T18:43:23;5.50;99.90
34434;DHT22;34290;48.562;13.384;2023-04-19T18:45:53;5.50;99.90
34434;DHT22;34290;48.562;13.384;2023-04-19T18:53:17;5.30;99.90
34434;DHT22;34290;48.562;13.384;2023-04-19T18:55:46;5.30;99.90
34434;DHT22;34290;48.562;13.384;2023-04-19T18:58:14;5.30;99.90
34434;DHT22;34290;48.562;13.384;2023-04-19T19:00:42;5.30;99.90
34434;DHT22;34290;48.562;13.384;2023-04-19T19:05:36;5.40;99.90
34434;DHT22;34290;48.562;13.384;2023-04-19T19:12:59;5.30;99.90
34434;DHT22;34290;48.562;13.384;2023-04-19T19:15:26;5.20;99.90
34434;DHT22;34290;48.562;13.384;2023-04-19T19:22:49;5.00;99.90
34434;DHT22;34290;48.562;13.384;2023-04-19T19:30:11;5.00;99.90
34434;DHT22;34290;48.562;13.384;2023-04-19T19:35:07;4.90;99.90
34434;DHT22;34290;48.562;13.384;2023-04-19T19:40:02;4.80;99.90
34434;DHT22;34290;48.562;13.384;2023-04-19T19:42:30;4.80;99.90
34434;DHT22;34290;48.562;13.384;2023-04-19T19:44:57;4.80;99.90
34434;DHT22;34290;48.562;13.384;2023-04-19T19:47:24;4.80;99.90
34434;DHT22;34290;48.562;13.384;2023-04-19T19:49:52;4.80;99.90
34434;DHT22;34290;48.562;13.384;2023-04-19T19:54:48;4.80;99.90
34434;DHT22;34290;48.562;13.384;2023-04-19T19:59:42;4.80;99.90
34434;DHT22;34290;48.562;13.384;2023-04-19T20:04:36;4.70;99.90
34434;DHT22;34290;48.562;13.384;2023-04-19T20:07:04;4.70;99.90
34434;DHT22;34290;48.562;13.384;2023-04-19T20:09:32;4.70;99.90
34434;DHT22;34290;48.562;13.384;2023-04-19T20:12:00;4.60;99.90
34434;DHT22;34290;48.562;13.384;2023-04-19T20:21:52;4.70;99.90
34434;DHT22;34290;48.562;13.384;2023-04-19T20:26:48;4.60;99.90
34434;DHT22;34290;48.562;13.384;2023-04-19T20:34:09;4.60;99.90
34434;DHT22;34290;48.562;13.384;2023-04-19T20:41:34;4.50;99.90
34434;DHT22;34290;48.562;13.384;2023-04-19T20:46:29;4.40;99.90
34434;DHT22;34290;48.562;13.384;2023-04-19T20:51:24;4.30;99.90
34434;DHT22;34290;48.562;13.384;2023-04-19T20:56:18;4.20;99.90
34434;DHT22;34290;48.562;13.384;2023-04-19T21:01:13;4.10;99.90
34434;DHT22;34290;48.562;13.384;2023-04-19T21:03:41;4.20;99.90
34434;DHT22;34290;48.562;13.384;2023-04-19T21:08:36;4.10;99.90
34434;DHT22;34290;48.562;13.384;2023-04-19T21:13:30;4.10;99.90
34434;DHT22;34290;48.562;13.384;2023-04-19T21:18:26;4.10;99.90
34434;DHT22;34290;48.562;13.384;2023-04-19T21:23:22;3.90;99.90
34434;DHT22;34290;48.562;13.384;2023-04-19T21:28:16;3.80;99.90
34434;DHT22;34290;48.562;13.384;2023-04-19T21:30:43;3.80;99.90
34434;DHT22;34290;48.562;13.384;2023-04-19T21:33:10;3.80;99.90
34434;DHT22;34290;48.562;13.384;2023-04-19T21:35:39;3.80;99.90
34434;DHT22;34290;48.562;13.384;2023-04-19T21:40:33;3.80;99.90
34434;DHT22;34290;48.562;13.384;2023-04-19T21:45:27;3.80;99.90
34434;DHT22;34290;48.562;13.384;2023-04-19T21:50:21;3.80;99.90
34434;DHT22;34290;48.562;13.384;2023-04-19T21:52:49;3.70;99.90
34434;DHT22;34290;48.562;13.384;2023-04-19T21:57:44;3.80;99.90
34434;DHT22;34290;48.562;13.384;2023-04-19T22:00:11;3.70;99.90
34434;DHT22;34290;48.562;13.384;2023-04-19T22:05:06;3.60;99.90
34434;DHT22;34290;48.562;13.384;2023-04-19T22:07:33;3.60;99.90
34434;DHT22;34290;48.562;13.384;2023-04-19T22:10:05;3.50;99.90
34434;DHT22;34290;48.562;13.384;2023-04-19T22:12:32;3.50;99.90
34434;DHT22;34290;48.562;13.384;2023-04-19T22:19:54;3.40;99.90
34434;DHT22;34290;48.562;13.384;2023-04-19T22:24:50;3.40;99.90
34434;DHT22;34290;48.562;13.384;2023-04-19T22:27:19;3.40;99.90
34434;DHT22;34290;48.562;13.384;2023-04-19T22:29:46;3.40;99.90
34434;DHT22;34290;48.562;13.384;2023-04-19T22:32:13;3.40;99.90
34434;DHT22;34290;48.562;13.384;2023-04-19T22:39:35;3.30;99.90
34434;DHT22;34290;48.562;13.384;2023-04-19T22:54:22;3.20;99.90
34434;DHT22;34290;48.562;13.384;2023-04-19T22:56:49;3.20;99.90
34434;DHT22;34290;48.562;13.384;2023-04-19T23:01:45;3.20;99.90
34434;DHT22;34290;48.562;13.384;2023-04-19T23:09:08;3.20;99.90
34434;DHT22;34290;48.562;13.384;2023-04-19T23:11:38;3.10;99.90
34434;DHT22;34290;48.562;13.384;2023-04-19T23:19:04;3.10;99.90
34434;DHT22;34290;48.562;13.384;2023-04-19T23:21:32;3.10;99.90
34434;DHT22;34290;48.562;13.384;2023-04-19T23:23:59;3.10;99.90
34434;DHT22;34290;48.562;13.384;2023-04-19T23:26:26;3.20;99.90
34434;DHT22;34290;48.562;13.384;2023-04-19T23:28:52;3.20;99.90
34434;DHT22;34290;48.562;13.384;2023-04-19T23:33:47;3.20;99.90
34434;DHT22;34290;48.562;13.384;2023-04-19T23:38:42;3.20;99.90
34434;DHT22;34290;48.562;13.384;2023-04-19T23:43:37;3.20;99.90
34434;DHT22;34290;48.562;13.384;2023-04-19T23:46:05;3.20;99.90
34434;DHT22;34290;48.562;13.384;2023-04-19T23:50:59;3.10;99.90
34434;DHT22;34290;48.562;13.384;2023-04-19T23:55:56;3.20;99.90
34434;DHT22;34290;48.562;13.384;2023-04-19T23:58:23;3.20;99.90
